Anza Borrego Desert Research Center, California Weather observations

Data are for 10 minute period ending at time listed.
 Day   Time   Solar   Ave.   Ave.  Ave.  Vector  Max.   Baro.   Total    
  of    of     Rad.   Air    Rel.  Wind   Wind   Wind  Press.  Precip.   
Year   Day            Temp.  Hum.  Speed  Dir.   Gust                    
2014   (PST)  Kw/m2    F      %     mph   deg.    mph    mb.     in.     
-------------------------------------------------------------------------
 211    5:00   0.00   81.8    28    3.8   217     4.6   502.0    0.00 
 211    5:10   0.00   82.1    28    3.7   234     4.8   502.0    0.00 
 211    5:20   0.02   83.1    27    3.2   273     4.9   502.0    0.00 
 211    5:30   0.03   84.3    26    2.0   339     3.0   502.0    0.00 
 211    5:40   0.06   85.5    26    0.4   190     1.5   502.0    0.00 
 211    5:50   0.08   87.3    24    1.6   207     3.4   502.0    0.00 
 211    6:00   0.09   88.7    24    3.0   245     4.3   502.0    0.00 
 211    6:10   0.12   90.6    22    1.8   254     3.5   502.0    0.00 
 211    6:20   0.15   93.8    21    0.6   272     1.8   502.0    0.00 
 211    6:30   0.19   96.8    19    0.0   310     0.6   502.0    0.00 
 211    6:40   0.22   98.2    18    0.6   349     1.6   502.1    0.00 
 211    6:50   0.26   97.6    18    1.1   347     2.3   502.1    0.00 
 211    7:00   0.29   97.5    18    1.6   344     3.3   502.1    0.00 
 211    7:10   0.33   99.3    17    0.5    39     2.0   502.1    0.00 
 211    7:20   0.36  101.1    17    0.4   196     1.7   502.1    0.00 
 211    7:30   0.40  102.0    16    0.5   128     1.5   502.2    0.00 
 211    7:40   0.43  100.7    17    2.7   103     4.7   502.3    0.00 
 211    7:50   0.46  100.3    17    3.1   138     5.6   502.3    0.00 
 211    8:00   0.50  100.5    17    3.4   136     5.3   502.3    0.00 
 211    8:10   0.53  101.2    16    4.3   141     6.6   502.3    0.00 
 211    8:20   0.56  100.9    16    4.2   139     6.8   502.3    0.00 
 211    8:30   0.59  102.3    16    4.0   156     6.4   502.4    0.00 
 211    8:40   0.62  104.6    15    1.6   170     4.4   502.5    0.00 
 211    8:50   0.65  105.3    15    2.9   168     5.3   829.5    0.00 
 211    9:00   0.68  105.2    15    2.4   110     5.8   980.1    0.00 
 211    9:10   0.71  105.5    15    3.3   102     7.6   980.2    0.00 
 211    9:20   0.73  105.1    15    3.6    68     7.0   980.1    0.00 
 211    9:30   0.75  106.1    14    3.8    74     6.9   980.1    0.00 
 211    9:40   0.78  106.6    14    3.3    84     6.2   980.1    0.00 
 211    9:50   0.80  108.5    14    1.3   253     2.9   980.1    0.00 
 211   10:00   0.82  108.3    14    5.8   111    10.1   980.0    0.00 
 211   10:10   0.84  107.9    14    3.4   148     8.8   980.0    0.00 
 211   10:20   0.86  108.8    13    5.0   138    11.8   980.0    0.00 
 211   10:30   0.88  109.0    13    4.1    80     9.0   979.8    0.00 
 211   10:40   0.89  108.4    14    6.5   111    10.6   979.8    0.00 
 211   10:50   0.90  108.2    14    4.9   111     9.1   979.7    0.00 
 211   11:00   0.91  108.6    13    6.7   111    12.9   979.6    0.00 
 211   11:10   0.92  109.0    13    5.3   127    12.5   979.6    0.00 
 211   11:20   0.93  109.0    13    4.8   106    10.7   979.6    0.00 
 211   11:30   0.93  109.7    13    7.2   106    15.9   979.5    0.00 
 211   11:40   0.94  110.2    13    7.7   122    16.2   979.4    0.00 
 211   11:50   0.94  110.1    13   10.6   102    17.7   979.3    0.00 
 211   12:00   0.94  109.2    13    8.1   109    15.6   979.3    0.00 
 211   12:10   0.94  109.6    13    2.8    57     6.5   979.2    0.00 
 211   12:20   0.94  111.0    13    8.3   121    15.4   979.1    0.00 
 211   12:30   0.93  110.7    13    7.8   108    14.8   979.0    0.00 
 211   12:40   0.90  111.3    12    8.2    89    13.7   979.0    0.00 
 211   12:50   0.91  111.0    13   10.7    93    16.8   978.9    0.00 
 211   13:00   0.90  111.0    13    9.6    95    16.7   978.8    0.00 
 211   13:10   0.89  111.5    12    8.6    94    15.7   978.8    0.00 
 211   13:20   0.88  112.3    12    6.2   142    11.8   978.8    0.00 
 211   13:30   0.86  112.4    12    6.6    70    11.9   978.7    0.00 
 211   13:40   0.85  112.0    12   10.2   107    14.7   978.6    0.00 
 211   13:50   0.84  112.0    12    6.8   110    12.9   978.5    0.00 
 211   14:00   0.82  112.1    12    7.3   129    14.0   978.4    0.00 
 211   14:10   0.80  112.4    12    7.5   152    13.2   978.3    0.00 
 211   14:20   0.77  112.6    12    9.6   139    15.8   978.1    0.00 
 211   14:30   0.75  112.7    12   10.3    84    15.8   978.0    0.00 
 211   14:40   0.72  112.3    12    8.8   358    16.4   978.0    0.00 
 211   14:50   0.70  112.5    13    9.8   291    19.2   977.9    0.00 
 211   15:00   0.67  111.9    13   13.5   288    21.5   977.8    0.00 
 211   15:10   0.64  111.8    13   12.0   276    19.3   977.8    0.00 
 211   15:20   0.61  111.6    13   12.8   281    18.9   977.7    0.00 
 211   15:30   0.58  111.6    13   11.3   270    20.4   977.7    0.00 
 211   15:40   0.55  111.1    13   11.4   285    19.0   977.6    0.00 
 211   15:50   0.52  111.1    13    8.9   270    16.1   977.5    0.00 
 211   16:00   0.49  110.6    14   11.9   262    18.0   977.3    0.00 
 211   16:10   0.46  110.9    14   13.0   280    20.0   977.3    0.00 
 211   16:20   0.42  110.6    14   14.6   275    24.9   977.2    0.00 
 211   16:30   0.39  109.7    14   13.8   282    20.2   977.1    0.00 
 211   16:40   0.35  109.2    15   14.5   282    21.4   977.0    0.00 
 211   16:50   0.32  109.1    15   12.0   285    18.8   976.9    0.00 
 211   17:00   0.27  109.3    14   10.2   300    16.0   976.8    0.00 
 211   17:10   0.23  108.4    15   11.3   300    19.1   976.8    0.00 
 211   17:20   0.16  107.5    15   11.7   294    18.7   976.7    0.00 
 211   17:30   0.16  107.3    15    9.4   309    12.9   976.8    0.00 
 211   17:40   0.07  106.6    15   10.3   304    17.8   976.8    0.00 
 211   17:50   0.03  105.6    16    9.3   316    17.0   976.7    0.00 
 211   18:00   0.03  104.6    17   12.1   333    17.1   976.8    0.00 
 211   18:10   0.03  104.2    17   13.6   331    23.1   976.8    0.00 
 211   18:20   0.02  104.1    17    7.0   333    15.9   976.9    0.00 
 211   18:30   0.01  103.3    18    9.9   331    17.5   977.0    0.00 
 211   18:40   0.01  103.1    18    9.4   321    17.1   977.1    0.00 
 211   18:50   0.00  102.8    18    9.7   315    16.7   977.2    0.00 
 211   19:00   0.00  102.4    18    9.3   324    17.5   977.3    0.00 
 211   19:10   0.00  102.3    18    7.3   320    14.2   977.4    0.00 
 211   19:20   0.00  102.4    18    4.2   328     9.1   977.5    0.00 
 211   19:30   0.00  102.4    18    3.8   322    10.2   977.3    0.00 
 211   19:40   0.00  101.4    19    3.8    82     7.5   976.8    0.00 
 211   19:50   0.00  100.2    20    7.3   134    10.9   682.2    0.00 
 211   20:00   0.00  100.0    20    7.8   130    10.8   502.3    0.00 
 211   20:10   0.00   99.9    20    6.0   136     9.4   502.3    0.00 
 211   20:20   0.00   98.9    21    2.3   299     5.2   502.3    0.00 
 211   20:30   0.00   98.0    21    3.0   342     6.4   502.3    0.00 
 211   20:40   0.00   99.1    21    2.6    44     4.1   502.3    0.00 
 211   20:50   0.00   98.6    20    3.5    95     5.3   502.3    0.00 
 211   21:00   0.00   96.4    22    4.5   136     5.8   502.3    0.00 
 211   21:10   0.00   95.9    23    4.8   134     6.1   502.3    0.00 
 211   21:20   0.00   96.1    23    3.1   144     5.5   502.3    0.00 
 211   21:30   0.00   94.5    24    1.6   261     3.8   502.2    0.00 
 211   21:40   0.00   94.4    24    3.5   206     6.4   502.1    0.00 
 211   21:50   0.00   94.6    24    4.2   206     6.3   502.1    0.00 
 211   22:00   0.00   94.8    24    3.1   222     5.6   502.1    0.00 
 211   22:10   0.00   93.5    24    4.6   227     6.2   502.1    0.00 
 211   22:20   0.00   92.6    25    3.9   224     6.7   502.1    0.00 
 211   22:30   0.00   92.6    25    4.9   184     6.6   502.1    0.00 
 211   22:40   0.00   92.5    25    1.8   180     5.3   502.1    0.00 
 211   22:50   0.00   92.3    25    3.7   268     6.4   502.1    0.00 
 211   23:00   0.00   94.4    24    2.6   234     5.0   502.1    0.00 
 211   23:10   0.00   93.1    24    2.4   257     3.7   502.1    0.00 
 211   23:20   0.00   92.4    25    4.0   283     6.1   502.1    0.00 
 211   23:30   0.00   92.7    25    1.4   218     3.8   502.1    0.00 
 211   23:40   0.00   92.4    25    2.5   200     4.1   502.1    0.00 
 211   23:50   0.00   91.4    25    3.2   234     5.6   502.1    0.00 
 212    0:00   0.00   90.2    26    3.6   242     5.1   502.1    0.00 
 212    0:10   0.00   88.9    27    3.0   250     4.7   502.1    0.00 
 212    0:20   0.00   89.0    27    4.0   226     5.8   502.1    0.00 
 212    0:30   0.00   89.9    26    4.8   229     6.9   502.1    0.00 
 212    0:40   0.00   88.5    27    3.0   197     4.3   502.1    0.00 
 212    0:50   0.00   88.7    26    1.7   202     3.7   502.0    0.00 
 212    1:00   0.00   88.1    27    2.8   256     6.4   502.0    0.00 
 212    1:10   0.00   87.9    27    2.3   260     5.0   502.0    0.00 
 212    1:20   0.00   86.7    28    2.9   325     4.5   502.0    0.00 
 212    1:30   0.00   87.3    27    1.9   266     4.4   502.0    0.00 
 212    1:40   0.00   87.7    27    1.8   268     4.6   502.0    0.00 
 212    1:50   0.00   86.4    27    3.6   280     4.7   502.0    0.00 
 212    2:00   0.00   86.5    27    4.7   281     6.2   502.0    0.00 
 212    2:10   0.00   86.4    27    3.6   265     4.7   502.0    0.00 
 212    2:20   0.00   87.2    26    2.1   282     4.5   502.0    0.00 
 212    2:30   0.00   86.8    26    0.7   208     1.8   502.0    0.00 
 212    2:40   0.00   86.1    26    1.3   142     3.0   502.0    0.00 
 212    2:50   0.00   86.1    26    1.6   184     5.1   502.0    0.00 
 212    3:00   0.00   88.4    25    1.3   233     2.6   502.0    0.00 
 212    3:10   0.00   86.9    26    2.5   270     4.6   502.0    0.00 
 212    3:20   0.00   85.3    27    5.5   245     6.4   502.0    0.00 
 212    3:30   0.00   85.0    28    5.4   246     6.3   502.0    0.00 
 212    3:40   0.00   84.4    28    4.5   251     5.0   502.0    0.00 
 212    3:50   0.00   84.1    27    1.9   257     4.4   502.0    0.00 
 212    4:00   0.00   84.7    26    0.4   288     1.4   502.0    0.00 
 212    4:10   0.00   86.5    26    2.1   289     3.6   502.0    0.00 
 212    4:20   0.00   85.7    26    2.8   258     4.2   502.0    0.00 
 212    4:30   0.00   84.7    27    4.1   245     5.8   502.0    0.00 
 212    4:40   0.00   85.1    26    4.9   257     6.1   502.0    0.00 
 212    4:50   0.00   85.2    25    3.0   233     5.3   502.0    0.00 

Return to Anza Borrego Desert Research Center graphs page.


Western Regional Climate Center,wrcc@dri.edu